sensor_id;sensor_type;location;lat;lon;timestamp;P1;durP1;ratioP1;P2;durP2;ratioP2
64799;SDS011;51233;51.982;4.594;2023-04-23T00:02:50;35.33;;;26.67;;
64799;SDS011;51233;51.982;4.594;2023-04-23T00:05:51;37.47;;;27.70;;
64799;SDS011;51233;51.982;4.594;2023-04-23T00:08:53;36.00;;;26.23;;
64799;SDS011;51233;51.982;4.594;2023-04-23T00:11:54;37.97;;;27.93;;
64799;SDS011;51233;51.982;4.594;2023-04-23T00:14:55;38.83;;;27.10;;
64799;SDS011;51233;51.982;4.594;2023-04-23T00:17:55;37.80;;;26.80;;
64799;SDS011;51233;51.982;4.594;2023-04-23T00:20:55;36.80;;;26.92;;
64799;SDS011;51233;51.982;4.594;2023-04-23T00:23:56;33.60;;;27.17;;
64799;SDS011;51233;51.982;4.594;2023-04-23T00:26:56;34.90;;;25.70;;
64799;SDS011;51233;51.982;4.594;2023-04-23T00:29:56;34.10;;;25.75;;
64799;SDS011;51233;51.982;4.594;2023-04-23T00:32:56;31.35;;;24.77;;
64799;SDS011;51233;51.982;4.594;2023-04-23T00:35:57;34.85;;;24.98;;
64799;SDS011;51233;51.982;4.594;2023-04-23T00:38:57;36.63;;;26.40;;
64799;SDS011;51233;51.982;4.594;2023-04-23T00:41:57;40.58;;;27.92;;
64799;SDS011;51233;51.982;4.594;2023-04-23T00:45:06;35.33;;;26.30;;
64799;SDS011;51233;51.982;4.594;2023-04-23T00:48:07;35.33;;;25.85;;
64799;SDS011;51233;51.982;4.594;2023-04-23T00:51:10;36.40;;;25.93;;
64799;SDS011;51233;51.982;4.594;2023-04-23T00:54:13;38.85;;;26.27;;
64799;SDS011;51233;51.982;4.594;2023-04-23T00:57:13;32.63;;;25.90;;
64799;SDS011;51233;51.982;4.594;2023-04-23T01:00:21;34.22;;;26.92;;
64799;SDS011;51233;51.982;4.594;2023-04-23T01:03:21;35.00;;;26.70;;
64799;SDS011;51233;51.982;4.594;2023-04-23T01:06:21;34.42;;;25.40;;
64799;SDS011;51233;51.982;4.594;2023-04-23T01:09:24;33.83;;;26.17;;
64799;SDS011;51233;51.982;4.594;2023-04-23T01:12:26;32.63;;;25.05;;
64799;SDS011;51233;51.982;4.594;2023-04-23T01:15:26;38.33;;;26.40;;
64799;SDS011;51233;51.982;4.594;2023-04-23T01:18:27;34.13;;;26.40;;
64799;SDS011;51233;51.982;4.594;2023-04-23T01:21:27;34.23;;;26.00;;
64799;SDS011;51233;51.982;4.594;2023-04-23T01:24:28;37.65;;;26.50;;
64799;SDS011;51233;51.982;4.594;2023-04-23T01:27:28;35.23;;;26.67;;
64799;SDS011;51233;51.982;4.594;2023-04-23T01:30:29;33.30;;;26.30;;
64799;SDS011;51233;51.982;4.594;2023-04-23T01:33:30;33.05;;;25.92;;
64799;SDS011;51233;51.982;4.594;2023-04-23T01:36:33;30.13;;;24.33;;
64799;SDS011;51233;51.982;4.594;2023-04-23T01:39:37;32.35;;;25.23;;
64799;SDS011;51233;51.982;4.594;2023-04-23T01:42:43;30.65;;;23.77;;
64799;SDS011;51233;51.982;4.594;2023-04-23T01:45:46;32.23;;;25.27;;
64799;SDS011;51233;51.982;4.594;2023-04-23T01:48:47;33.75;;;24.48;;
64799;SDS011;51233;51.982;4.594;2023-04-23T01:51:48;31.53;;;24.00;;
64799;SDS011;51233;51.982;4.594;2023-04-23T01:54:48;30.15;;;24.92;;
64799;SDS011;51233;51.982;4.594;2023-04-23T01:57:48;31.50;;;23.83;;
64799;SDS011;51233;51.982;4.594;2023-04-23T02:00:50;27.95;;;22.77;;
64799;SDS011;51233;51.982;4.594;2023-04-23T02:03:50;30.03;;;23.10;;
64799;SDS011;51233;51.982;4.594;2023-04-23T02:06:50;26.40;;;21.45;;
64799;SDS011;51233;51.982;4.594;2023-04-23T02:09:50;25.48;;;20.35;;
64799;SDS011;51233;51.982;4.594;2023-04-23T02:12:51;25.52;;;20.95;;
64799;SDS011;51233;51.982;4.594;2023-04-23T02:15:51;25.07;;;21.70;;
64799;SDS011;51233;51.982;4.594;2023-04-23T02:18:51;23.38;;;20.56;;
64799;SDS011;51233;51.982;4.594;2023-04-23T02:21:51;23.13;;;19.48;;
64799;SDS011;51233;51.982;4.594;2023-04-23T02:24:51;22.63;;;20.23;;
64799;SDS011;51233;51.982;4.594;2023-04-23T02:27:52;21.30;;;17.73;;
64799;SDS011;51233;51.982;4.594;2023-04-23T02:30:52;21.43;;;17.80;;
64799;SDS011;51233;51.982;4.594;2023-04-23T02:33:52;19.63;;;16.75;;
64799;SDS011;51233;51.982;4.594;2023-04-23T02:36:53;19.88;;;17.77;;
64799;SDS011;51233;51.982;4.594;2023-04-23T02:39:53;20.47;;;18.27;;
64799;SDS011;51233;51.982;4.594;2023-04-23T02:42:53;18.63;;;16.53;;
64799;SDS011;51233;51.982;4.594;2023-04-23T02:45:53;18.53;;;16.63;;
64799;SDS011;51233;51.982;4.594;2023-04-23T02:48:53;16.83;;;14.98;;
64799;SDS011;51233;51.982;4.594;2023-04-23T02:51:54;20.90;;;17.20;;
64799;SDS011;51233;51.982;4.594;2023-04-23T02:54:54;19.40;;;17.30;;
64799;SDS011;51233;51.982;4.594;2023-04-23T02:57:54;20.03;;;17.97;;
64799;SDS011;51233;51.982;4.594;2023-04-23T03:00:57;16.78;;;15.08;;
64799;SDS011;51233;51.982;4.594;2023-04-23T03:03:58;17.17;;;15.02;;
64799;SDS011;51233;51.982;4.594;2023-04-23T03:06:58;17.55;;;15.02;;
64799;SDS011;51233;51.982;4.594;2023-04-23T03:09:58;17.42;;;15.63;;
64799;SDS011;51233;51.982;4.594;2023-04-23T03:12:59;17.70;;;15.87;;
64799;SDS011;51233;51.982;4.594;2023-04-23T03:15:59;18.23;;;13.97;;
64799;SDS011;51233;51.982;4.594;2023-04-23T03:18:59;17.23;;;14.85;;
64799;SDS011;51233;51.982;4.594;2023-04-23T03:22:00;16.73;;;13.80;;
64799;SDS011;51233;51.982;4.594;2023-04-23T03:25:04;18.13;;;14.48;;
64799;SDS011;51233;51.982;4.594;2023-04-23T03:28:08;16.55;;;14.90;;
64799;SDS011;51233;51.982;4.594;2023-04-23T03:31:08;16.65;;;14.88;;
64799;SDS011;51233;51.982;4.594;2023-04-23T03:34:08;16.23;;;14.53;;
64799;SDS011;51233;51.982;4.594;2023-04-23T03:37:12;16.50;;;14.68;;
64799;SDS011;51233;51.982;4.594;2023-04-23T03:40:12;17.02;;;14.07;;
64799;SDS011;51233;51.982;4.594;2023-04-23T03:43:15;14.68;;;13.27;;
64799;SDS011;51233;51.982;4.594;2023-04-23T03:46:15;18.30;;;16.27;;
64799;SDS011;51233;51.982;4.594;2023-04-23T03:49:15;16.83;;;15.13;;
64799;SDS011;51233;51.982;4.594;2023-04-23T03:52:16;16.03;;;14.43;;
64799;SDS011;51233;51.982;4.594;2023-04-23T03:55:16;16.83;;;15.02;;
64799;SDS011;51233;51.982;4.594;2023-04-23T03:58:16;15.70;;;14.17;;
64799;SDS011;51233;51.982;4.594;2023-04-23T04:01:17;16.57;;;14.87;;
64799;SDS011;51233;51.982;4.594;2023-04-23T04:04:20;17.50;;;15.70;;
64799;SDS011;51233;51.982;4.594;2023-04-23T04:07:20;17.50;;;15.65;;
64799;SDS011;51233;51.982;4.594;2023-04-23T04:10:21;17.23;;;14.73;;
64799;SDS011;51233;51.982;4.594;2023-04-23T04:13:21;19.33;;;16.45;;
64799;SDS011;51233;51.982;4.594;2023-04-23T04:16:21;16.80;;;15.20;;
64799;SDS011;51233;51.982;4.594;2023-04-23T04:19:21;20.73;;;16.13;;
64799;SDS011;51233;51.982;4.594;2023-04-23T04:22:21;18.13;;;15.33;;
64799;SDS011;51233;51.982;4.594;2023-04-23T04:25:22;16.30;;;14.70;;
64799;SDS011;51233;51.982;4.594;2023-04-23T04:28:27;18.38;;;15.10;;
64799;SDS011;51233;51.982;4.594;2023-04-23T04:31:27;18.67;;;16.63;;
64799;SDS011;51233;51.982;4.594;2023-04-23T04:34:28;16.27;;;14.57;;
64799;SDS011;51233;51.982;4.594;2023-04-23T04:37:28;16.53;;;14.83;;
64799;SDS011;51233;51.982;4.594;2023-04-23T04:40:28;16.63;;;14.88;;
64799;SDS011;51233;51.982;4.594;2023-04-23T04:43:29;15.43;;;13.83;;
64799;SDS011;51233;51.982;4.594;2023-04-23T04:46:30;18.53;;;16.70;;
64799;SDS011;51233;51.982;4.594;2023-04-23T04:49:30;18.63;;;16.70;;
64799;SDS011;51233;51.982;4.594;2023-04-23T04:52:31;16.73;;;14.07;;
64799;SDS011;51233;51.982;4.594;2023-04-23T04:55:31;18.08;;;16.15;;
64799;SDS011;51233;51.982;4.594;2023-04-23T04:58:31;17.23;;;15.52;;
64799;SDS011;51233;51.982;4.594;2023-04-23T05:01:31;16.58;;;13.70;;
64799;SDS011;51233;51.982;4.594;2023-04-23T05:04:32;17.80;;;15.90;;
64799;SDS011;51233;51.982;4.594;2023-04-23T05:07:32;15.80;;;14.15;;
64799;SDS011;51233;51.982;4.594;2023-04-23T05:10:39;15.63;;;13.67;;
64799;SDS011;51233;51.982;4.594;2023-04-23T05:13:39;17.13;;;15.30;;
64799;SDS011;51233;51.982;4.594;2023-04-23T05:16:40;16.63;;;14.88;;
64799;SDS011;51233;51.982;4.594;2023-04-23T05:19:42;16.85;;;14.27;;
64799;SDS011;51233;51.982;4.594;2023-04-23T05:22:42;17.10;;;15.30;;
64799;SDS011;51233;51.982;4.594;2023-04-23T05:25:43;16.05;;;14.35;;
64799;SDS011;51233;51.982;4.594;2023-04-23T05:28:43;15.50;;;13.88;;
64799;SDS011;51233;51.982;4.594;2023-04-23T05:31:43;15.85;;;14.15;;
64799;SDS011;51233;51.982;4.594;2023-04-23T05:34:43;18.60;;;15.73;;
64799;SDS011;51233;51.982;4.594;2023-04-23T05:37:43;17.13;;;15.13;;
64799;SDS011;51233;51.982;4.594;2023-04-23T05:40:43;16.48;;;14.77;;
64799;SDS011;51233;51.982;4.594;2023-04-23T05:43:44;16.63;;;14.93;;
64799;SDS011;51233;51.982;4.594;2023-04-23T05:46:44;18.10;;;15.03;;
64799;SDS011;51233;51.982;4.594;2023-04-23T05:49:45;14.93;;;13.43;;
64799;SDS011;51233;51.982;4.594;2023-04-23T05:52:45;16.30;;;13.70;;
64799;SDS011;51233;51.982;4.594;2023-04-23T05:55:45;16.30;;;14.70;;
64799;SDS011;51233;51.982;4.594;2023-04-23T05:58:48;16.40;;;13.98;;
64799;SDS011;51233;51.982;4.594;2023-04-23T06:01:48;16.98;;;13.55;;
64799;SDS011;51233;51.982;4.594;2023-04-23T06:04:48;15.93;;;13.60;;
64799;SDS011;51233;51.982;4.594;2023-04-23T06:07:49;15.05;;;13.45;;
64799;SDS011;51233;51.982;4.594;2023-04-23T06:10:49;16.00;;;14.30;;
64799;SDS011;51233;51.982;4.594;2023-04-23T06:13:49;16.17;;;14.48;;
64799;SDS011;51233;51.982;4.594;2023-04-23T06:16:53;16.70;;;14.07;;
64799;SDS011;51233;51.982;4.594;2023-04-23T06:19:53;13.85;;;12.43;;
64799;SDS011;51233;51.982;4.594;2023-04-23T06:22:53;13.98;;;12.48;;
64799;SDS011;51233;51.982;4.594;2023-04-23T06:25:53;15.50;;;13.50;;
64799;SDS011;51233;51.982;4.594;2023-04-23T06:28:53;14.20;;;12.40;;
64799;SDS011;51233;51.982;4.594;2023-04-23T06:31:59;11.05;;;9.95;;
64799;SDS011;51233;51.982;4.594;2023-04-23T06:35:00;14.70;;;12.95;;
64799;SDS011;51233;51.982;4.594;2023-04-23T06:38:00;12.20;;;10.32;;
64799;SDS011;51233;51.982;4.594;2023-04-23T06:41:00;11.37;;;9.90;;
64799;SDS011;51233;51.982;4.594;2023-04-23T06:44:00;16.17;;;11.48;;
64799;SDS011;51233;51.982;4.594;2023-04-23T06:47:00;13.73;;;9.77;;
64799;SDS011;51233;51.982;4.594;2023-04-23T06:50:03;11.57;;;10.40;;
64799;SDS011;51233;51.982;4.594;2023-04-23T06:53:10;15.13;;;10.32;;
64799;SDS011;51233;51.982;4.594;2023-04-23T06:56:10;13.13;;;9.13;;
64799;SDS011;51233;51.982;4.594;2023-04-23T06:59:10;11.10;;;10.00;;
64799;SDS011;51233;51.982;4.594;2023-04-23T07:02:10;12.10;;;8.70;;
64799;SDS011;51233;51.982;4.594;2023-04-23T07:05:11;9.80;;;8.00;;
64799;SDS011;51233;51.982;4.594;2023-04-23T07:08:11;10.80;;;8.30;;
64799;SDS011;51233;51.982;4.594;2023-04-23T07:11:12;9.40;;;8.40;;
64799;SDS011;51233;51.982;4.594;2023-04-23T07:14:12;11.10;;;8.40;;
64799;SDS011;51233;51.982;4.594;2023-04-23T07:17:15;9.95;;;7.35;;
64799;SDS011;51233;51.982;4.594;2023-04-23T07:20:15;11.00;;;7.22;;
64799;SDS011;51233;51.982;4.594;2023-04-23T07:23:19;10.38;;;7.55;;
64799;SDS011;51233;51.982;4.594;2023-04-23T07:26:20;11.10;;;6.78;;
64799;SDS011;51233;51.982;4.594;2023-04-23T07:29:20;14.20;;;6.93;;
64799;SDS011;51233;51.982;4.594;2023-04-23T07:32:20;10.03;;;6.50;;
64799;SDS011;51233;51.982;4.594;2023-04-23T07:35:22;8.95;;;7.13;;
64799;SDS011;51233;51.982;4.594;2023-04-23T07:38:22;15.50;;;6.95;;
64799;SDS011;51233;51.982;4.594;2023-04-23T07:41:23;10.15;;;7.07;;
64799;SDS011;51233;51.982;4.594;2023-04-23T07:44:23;12.67;;;6.37;;
64799;SDS011;51233;51.982;4.594;2023-04-23T07:47:24;7.53;;;6.07;;
64799;SDS011;51233;51.982;4.594;2023-04-23T07:50:24;12.27;;;5.97;;
64799;SDS011;51233;51.982;4.594;2023-04-23T07:53:24;11.30;;;7.20;;
64799;SDS011;51233;51.982;4.594;2023-04-23T07:56:27;10.75;;;6.35;;
64799;SDS011;51233;51.982;4.594;2023-04-23T07:59:28;9.90;;;5.73;;
64799;SDS011;51233;51.982;4.594;2023-04-23T08:02:28;11.33;;;6.00;;
64799;SDS011;51233;51.982;4.594;2023-04-23T08:05:31;9.73;;;6.38;;
64799;SDS011;51233;51.982;4.594;2023-04-23T08:08:31;8.27;;;4.90;;
64799;SDS011;51233;51.982;4.594;2023-04-23T08:11:32;14.30;;;6.30;;
64799;SDS011;51233;51.982;4.594;2023-04-23T08:14:32;14.47;;;5.97;;
64799;SDS011;51233;51.982;4.594;2023-04-23T08:17:32;14.57;;;6.28;;
64799;SDS011;51233;51.982;4.594;2023-04-23T08:20:33;8.90;;;4.32;;
64799;SDS011;51233;51.982;4.594;2023-04-23T08:23:33;6.00;;;4.67;;
64799;SDS011;51233;51.982;4.594;2023-04-23T08:26:33;8.90;;;5.00;;
64799;SDS011;51233;51.982;4.594;2023-04-23T08:29:33;10.50;;;5.03;;
64799;SDS011;51233;51.982;4.594;2023-04-23T08:32:34;10.20;;;5.10;;
64799;SDS011;51233;51.982;4.594;2023-04-23T08:35:34;9.55;;;4.72;;
64799;SDS011;51233;51.982;4.594;2023-04-23T08:38:34;9.23;;;4.30;;
64799;SDS011;51233;51.982;4.594;2023-04-23T08:41:48;10.50;;;4.82;;
64799;SDS011;51233;51.982;4.594;2023-04-23T08:44:50;12.88;;;5.88;;
64799;SDS011;51233;51.982;4.594;2023-04-23T08:47:52;11.40;;;5.55;;
64799;SDS011;51233;51.982;4.594;2023-04-23T08:50:52;10.10;;;4.90;;
64799;SDS011;51233;51.982;4.594;2023-04-23T08:53:54;8.77;;;4.30;;
64799;SDS011;51233;51.982;4.594;2023-04-23T08:56:55;10.77;;;4.63;;
64799;SDS011;51233;51.982;4.594;2023-04-23T08:59:58;9.85;;;4.82;;
64799;SDS011;51233;51.982;4.594;2023-04-23T09:02:59;9.90;;;4.37;;
64799;SDS011;51233;51.982;4.594;2023-04-23T09:06:00;15.13;;;4.60;;
64799;SDS011;51233;51.982;4.594;2023-04-23T09:09:00;9.93;;;4.63;;
64799;SDS011;51233;51.982;4.594;2023-04-23T09:12:01;9.10;;;4.30;;
64799;SDS011;51233;51.982;4.594;2023-04-23T09:15:04;16.35;;;5.20;;
64799;SDS011;51233;51.982;4.594;2023-04-23T09:18:09;9.35;;;4.40;;
64799;SDS011;51233;51.982;4.594;2023-04-23T09:21:09;8.47;;;3.80;;
64799;SDS011;51233;51.982;4.594;2023-04-23T09:24:10;10.90;;;4.37;;
64799;SDS011;51233;51.982;4.594;2023-04-23T09:27:11;9.70;;;3.77;;
64799;SDS011;51233;51.982;4.594;2023-04-23T09:30:14;8.67;;;4.50;;
64799;SDS011;51233;51.982;4.594;2023-04-23T09:33:15;8.23;;;3.90;;
64799;SDS011;51233;51.982;4.594;2023-04-23T09:36:15;7.43;;;4.00;;
64799;SDS011;51233;51.982;4.594;2023-04-23T09:39:16;10.10;;;3.80;;
64799;SDS011;51233;51.982;4.594;2023-04-23T09:42:17;7.70;;;3.43;;
64799;SDS011;51233;51.982;4.594;2023-04-23T09:45:17;9.45;;;3.53;;
64799;SDS011;51233;51.982;4.594;2023-04-23T09:48:18;9.13;;;3.90;;
64799;SDS011;51233;51.982;4.594;2023-04-23T09:51:20;13.65;;;4.63;;
64799;SDS011;51233;51.982;4.594;2023-04-23T09:54:23;10.30;;;4.45;;
64799;SDS011;51233;51.982;4.594;2023-04-23T09:57:25;10.93;;;3.85;;
64799;SDS011;51233;51.982;4.594;2023-04-23T10:00:25;8.27;;;3.93;;
64799;SDS011;51233;51.982;4.594;2023-04-23T10:03:29;14.18;;;4.90;;
64799;SDS011;51233;51.982;4.594;2023-04-23T10:06:29;10.70;;;4.27;;
64799;SDS011;51233;51.982;4.594;2023-04-23T10:09:31;8.82;;;4.25;;
64799;SDS011;51233;51.982;4.594;2023-04-23T10:12:31;11.97;;;4.53;;
64799;SDS011;51233;51.982;4.594;2023-04-23T10:15:31;11.07;;;4.43;;
64799;SDS011;51233;51.982;4.594;2023-04-23T10:18:32;9.80;;;4.07;;
64799;SDS011;51233;51.982;4.594;2023-04-23T10:21:32;11.20;;;4.30;;
64799;SDS011;51233;51.982;4.594;2023-04-23T10:24:34;7.97;;;3.60;;
64799;SDS011;51233;51.982;4.594;2023-04-23T10:27:37;7.60;;;3.60;;
64799;SDS011;51233;51.982;4.594;2023-04-23T10:30:38;13.32;;;3.22;;
64799;SDS011;51233;51.982;4.594;2023-04-23T10:33:39;9.10;;;3.27;;
64799;SDS011;51233;51.982;4.594;2023-04-23T10:36:40;5.67;;;2.77;;
64799;SDS011;51233;51.982;4.594;2023-04-23T10:39:42;8.23;;;2.73;;
64799;SDS011;51233;51.982;4.594;2023-04-23T10:42:43;9.27;;;2.80;;
64799;SDS011;51233;51.982;4.594;2023-04-23T10:45:43;10.27;;;2.80;;
64799;SDS011;51233;51.982;4.594;2023-04-23T10:48:50;9.70;;;3.10;;
64799;SDS011;51233;51.982;4.594;2023-04-23T10:51:57;7.97;;;2.80;;
64799;SDS011;51233;51.982;4.594;2023-04-23T10:55:00;7.25;;;1.90;;
64799;SDS011;51233;51.982;4.594;2023-04-23T10:58:04;7.95;;;2.70;;
64799;SDS011;51233;51.982;4.594;2023-04-23T11:01:04;8.23;;;2.45;;
64799;SDS011;51233;51.982;4.594;2023-04-23T11:04:20;7.97;;;2.70;;
64799;SDS011;51233;51.982;4.594;2023-04-23T11:07:24;5.53;;;2.20;;
64799;SDS011;51233;51.982;4.594;2023-04-23T11:10:25;6.45;;;2.40;;
64799;SDS011;51233;51.982;4.594;2023-04-23T11:13:51;8.68;;;2.53;;
64799;SDS011;51233;51.982;4.594;2023-04-23T11:16:55;6.25;;;2.35;;
64799;SDS011;51233;51.982;4.594;2023-04-23T11:23:09;10.30;;;2.67;;
64799;SDS011;51233;51.982;4.594;2023-04-23T11:26:27;6.80;;;2.42;;
64799;SDS011;51233;51.982;4.594;2023-04-23T11:29:29;3.55;;;1.70;;
64799;SDS011;51233;51.982;4.594;2023-04-23T11:32:30;9.98;;;2.47;;
64799;SDS011;51233;51.982;4.594;2023-04-23T11:35:31;7.20;;;2.35;;
64799;SDS011;51233;51.982;4.594;2023-04-23T11:38:38;9.05;;;2.40;;
64799;SDS011;51233;51.982;4.594;2023-04-23T11:41:42;3.80;;;2.17;;
64799;SDS011;51233;51.982;4.594;2023-04-23T11:44:43;4.20;;;2.10;;
64799;SDS011;51233;51.982;4.594;2023-04-23T11:47:44;6.87;;;2.30;;
64799;SDS011;51233;51.982;4.594;2023-04-23T11:50:45;6.87;;;2.40;;
64799;SDS011;51233;51.982;4.594;2023-04-23T11:53:45;4.03;;;1.80;;
64799;SDS011;51233;51.982;4.594;2023-04-23T11:56:46;10.87;;;2.10;;
64799;SDS011;51233;51.982;4.594;2023-04-23T11:59:46;8.20;;;2.00;;
64799;SDS011;51233;51.982;4.594;2023-04-23T12:02:50;7.43;;;2.10;;
64799;SDS011;51233;51.982;4.594;2023-04-23T12:05:50;6.45;;;1.95;;
64799;SDS011;51233;51.982;4.594;2023-04-23T12:08:50;6.27;;;2.10;;
64799;SDS011;51233;51.982;4.594;2023-04-23T12:11:51;7.63;;;2.00;;
64799;SDS011;51233;51.982;4.594;2023-04-23T12:15:01;5.30;;;1.60;;
64799;SDS011;51233;51.982;4.594;2023-04-23T12:18:08;5.90;;;1.80;;
64799;SDS011;51233;51.982;4.594;2023-04-23T12:21:11;5.03;;;1.75;;
64799;SDS011;51233;51.982;4.594;2023-04-23T12:24:12;7.30;;;1.60;;
64799;SDS011;51233;51.982;4.594;2023-04-23T12:27:13;5.70;;;2.03;;
64799;SDS011;51233;51.982;4.594;2023-04-23T12:30:13;6.30;;;1.88;;
64799;SDS011;51233;51.982;4.594;2023-04-23T12:33:16;5.90;;;2.10;;
64799;SDS011;51233;51.982;4.594;2023-04-23T12:36:17;7.80;;;1.80;;
64799;SDS011;51233;51.982;4.594;2023-04-23T12:39:21;6.60;;;1.98;;
64799;SDS011;51233;51.982;4.594;2023-04-23T12:42:22;3.30;;;1.70;;
64799;SDS011;51233;51.982;4.594;2023-04-23T12:45:22;6.67;;;1.77;;
64799;SDS011;51233;51.982;4.594;2023-04-23T12:48:22;5.40;;;1.90;;
64799;SDS011;51233;51.982;4.594;2023-04-23T12:51:22;4.73;;;2.07;;
64799;SDS011;51233;51.982;4.594;2023-04-23T12:54:23;7.03;;;1.92;;
64799;SDS011;51233;51.982;4.594;2023-04-23T12:57:24;5.50;;;2.10;;
64799;SDS011;51233;51.982;4.594;2023-04-23T13:00:25;5.32;;;1.83;;
64799;SDS011;51233;51.982;4.594;2023-04-23T13:03:26;5.93;;;2.10;;
64799;SDS011;51233;51.982;4.594;2023-04-23T13:06:26;7.50;;;2.07;;
64799;SDS011;51233;51.982;4.594;2023-04-23T13:09:29;6.18;;;2.05;;
64799;SDS011;51233;51.982;4.594;2023-04-23T13:12:29;7.37;;;1.80;;
64799;SDS011;51233;51.982;4.594;2023-04-23T13:15:29;4.35;;;1.30;;
64799;SDS011;51233;51.982;4.594;2023-04-23T13:18:30;3.13;;;1.20;;
64799;SDS011;51233;51.982;4.594;2023-04-23T13:21:30;4.00;;;1.45;;
64799;SDS011;51233;51.982;4.594;2023-04-23T13:24:30;4.70;;;1.70;;
64799;SDS011;51233;51.982;4.594;2023-04-23T13:27:31;6.27;;;1.63;;
64799;SDS011;51233;51.982;4.594;2023-04-23T13:30:31;2.30;;;1.13;;
64799;SDS011;51233;51.982;4.594;2023-04-23T13:33:31;6.23;;;1.20;;
64799;SDS011;51233;51.982;4.594;2023-04-23T13:36:31;3.20;;;1.20;;
64799;SDS011;51233;51.982;4.594;2023-04-23T13:39:31;3.10;;;1.17;;
64799;SDS011;51233;51.982;4.594;2023-04-23T13:42:32;4.50;;;1.23;;
64799;SDS011;51233;51.982;4.594;2023-04-23T13:45:33;3.40;;;1.70;;
64799;SDS011;51233;51.982;4.594;2023-04-23T13:48:33;5.27;;;1.70;;
64799;SDS011;51233;51.982;4.594;2023-04-23T13:51:33;5.82;;;1.80;;
64799;SDS011;51233;51.982;4.594;2023-04-23T13:54:34;4.13;;;1.60;;
64799;SDS011;51233;51.982;4.594;2023-04-23T13:57:38;4.72;;;1.90;;
64799;SDS011;51233;51.982;4.594;2023-04-23T14:00:38;5.57;;;2.00;;
64799;SDS011;51233;51.982;4.594;2023-04-23T14:03:38;5.57;;;2.03;;
64799;SDS011;51233;51.982;4.594;2023-04-23T14:06:38;4.43;;;1.80;;
64799;SDS011;51233;51.982;4.594;2023-04-23T14:09:39;3.30;;;1.60;;
64799;SDS011;51233;51.982;4.594;2023-04-23T14:12:42;4.88;;;1.95;;
64799;SDS011;51233;51.982;4.594;2023-04-23T14:15:43;4.07;;;1.38;;
64799;SDS011;51233;51.982;4.594;2023-04-23T14:18:43;4.67;;;1.60;;
64799;SDS011;51233;51.982;4.594;2023-04-23T14:21:44;6.07;;;2.10;;
64799;SDS011;51233;51.982;4.594;2023-04-23T14:24:48;4.00;;;1.70;;
64799;SDS011;51233;51.982;4.594;2023-04-23T14:27:49;7.35;;;2.08;;
64799;SDS011;51233;51.982;4.594;2023-04-23T14:30:49;3.80;;;1.73;;
64799;SDS011;51233;51.982;4.594;2023-04-23T14:33:53;4.68;;;2.00;;
64799;SDS011;51233;51.982;4.594;2023-04-23T14:36:55;6.15;;;2.00;;
64799;SDS011;51233;51.982;4.594;2023-04-23T14:39:58;6.45;;;2.45;;
64799;SDS011;51233;51.982;4.594;2023-04-23T14:42:58;8.27;;;2.50;;
64799;SDS011;51233;51.982;4.594;2023-04-23T14:45:58;5.80;;;2.45;;
64799;SDS011;51233;51.982;4.594;2023-04-23T14:48:58;7.97;;;2.60;;
64799;SDS011;51233;51.982;4.594;2023-04-23T14:51:58;10.75;;;2.92;;
64799;SDS011;51233;51.982;4.594;2023-04-23T14:54:58;8.83;;;2.00;;
64799;SDS011;51233;51.982;4.594;2023-04-23T14:58:01;5.97;;;2.30;;
64799;SDS011;51233;51.982;4.594;2023-04-23T15:01:02;6.57;;;2.13;;
64799;SDS011;51233;51.982;4.594;2023-04-23T15:04:03;5.73;;;1.90;;
64799;SDS011;51233;51.982;4.594;2023-04-23T15:07:03;3.97;;;1.70;;
64799;SDS011;51233;51.982;4.594;2023-04-23T15:10:04;4.87;;;1.80;;
64799;SDS011;51233;51.982;4.594;2023-04-23T15:13:24;3.15;;;1.55;;
64799;SDS011;51233;51.982;4.594;2023-04-23T15:16:29;4.32;;;1.67;;
64799;SDS011;51233;51.982;4.594;2023-04-23T15:19:31;4.30;;;1.70;;
64799;SDS011;51233;51.982;4.594;2023-04-23T15:22:31;4.00;;;1.60;;
64799;SDS011;51233;51.982;4.594;2023-04-23T15:25:32;2.75;;;1.20;;
64799;SDS011;51233;51.982;4.594;2023-04-23T15:28:33;3.95;;;1.65;;
64799;SDS011;51233;51.982;4.594;2023-04-23T15:31:33;2.90;;;1.40;;
64799;SDS011;51233;51.982;4.594;2023-04-23T15:34:33;3.93;;;1.47;;
64799;SDS011;51233;51.982;4.594;2023-04-23T15:37:33;2.97;;;1.42;;
64799;SDS011;51233;51.982;4.594;2023-04-23T15:40:34;3.87;;;1.27;;
64799;SDS011;51233;51.982;4.594;2023-04-23T15:43:40;2.60;;;1.25;;
64799;SDS011;51233;51.982;4.594;2023-04-23T15:46:41;3.28;;;1.20;;
64799;SDS011;51233;51.982;4.594;2023-04-23T15:49:41;2.33;;;1.02;;
64799;SDS011;51233;51.982;4.594;2023-04-23T15:52:41;2.63;;;1.37;;
64799;SDS011;51233;51.982;4.594;2023-04-23T15:55:41;2.20;;;0.97;;
64799;SDS011;51233;51.982;4.594;2023-04-23T15:58:44;2.22;;;1.35;;
64799;SDS011;51233;51.982;4.594;2023-04-23T16:01:45;2.53;;;1.20;;
64799;SDS011;51233;51.982;4.594;2023-04-23T16:04:45;2.67;;;1.30;;
64799;SDS011;51233;51.982;4.594;2023-04-23T16:07:45;3.10;;;1.37;;
64799;SDS011;51233;51.982;4.594;2023-04-23T16:10:45;3.90;;;1.38;;
64799;SDS011;51233;51.982;4.594;2023-04-23T16:13:45;1.90;;;0.90;;
64799;SDS011;51233;51.982;4.594;2023-04-23T16:16:46;2.83;;;1.00;;
64799;SDS011;51233;51.982;4.594;2023-04-23T16:19:46;2.10;;;1.10;;
64799;SDS011;51233;51.982;4.594;2023-04-23T16:22:46;3.13;;;1.27;;
64799;SDS011;51233;51.982;4.594;2023-04-23T16:25:46;2.05;;;1.20;;
64799;SDS011;51233;51.982;4.594;2023-04-23T16:28:47;1.97;;;1.03;;
64799;SDS011;51233;51.982;4.594;2023-04-23T16:31:47;1.65;;;1.30;;
64799;SDS011;51233;51.982;4.594;2023-04-23T16:34:47;3.47;;;1.47;;
64799;SDS011;51233;51.982;4.594;2023-04-23T16:37:47;3.47;;;1.67;;
64799;SDS011;51233;51.982;4.594;2023-04-23T16:40:47;2.97;;;1.47;;
64799;SDS011;51233;51.982;4.594;2023-04-23T16:43:49;3.13;;;1.30;;
64799;SDS011;51233;51.982;4.594;2023-04-23T16:46:49;2.63;;;1.57;;
64799;SDS011;51233;51.982;4.594;2023-04-23T16:49:49;4.50;;;1.60;;
64799;SDS011;51233;51.982;4.594;2023-04-23T16:52:50;2.17;;;1.60;;
64799;SDS011;51233;51.982;4.594;2023-04-23T16:55:50;3.60;;;1.53;;
64799;SDS011;51233;51.982;4.594;2023-04-23T16:58:50;4.70;;;1.47;;
64799;SDS011;51233;51.982;4.594;2023-04-23T17:01:50;2.08;;;1.30;;
64799;SDS011;51233;51.982;4.594;2023-04-23T17:04:50;2.63;;;1.30;;
64799;SDS011;51233;51.982;4.594;2023-04-23T17:07:51;1.52;;;1.23;;
64799;SDS011;51233;51.982;4.594;2023-04-23T17:10:52;2.33;;;1.40;;
64799;SDS011;51233;51.982;4.594;2023-04-23T17:13:52;3.57;;;1.40;;
64799;SDS011;51233;51.982;4.594;2023-04-23T17:16:53;5.63;;;1.27;;
64799;SDS011;51233;51.982;4.594;2023-04-23T17:19:53;4.83;;;1.40;;
64799;SDS011;51233;51.982;4.594;2023-04-23T17:22:53;4.40;;;1.60;;
64799;SDS011;51233;51.982;4.594;2023-04-23T17:25:53;4.95;;;2.10;;
64799;SDS011;51233;51.982;4.594;2023-04-23T17:28:53;3.10;;;1.60;;
64799;SDS011;51233;51.982;4.594;2023-04-23T17:31:54;4.47;;;1.77;;
64799;SDS011;51233;51.982;4.594;2023-04-23T17:34:54;3.30;;;1.30;;
64799;SDS011;51233;51.982;4.594;2023-04-23T17:37:54;3.33;;;1.70;;
64799;SDS011;51233;51.982;4.594;2023-04-23T17:40:55;3.30;;;1.30;;
64799;SDS011;51233;51.982;4.594;2023-04-23T17:43:55;2.90;;;1.60;;
64799;SDS011;51233;51.982;4.594;2023-04-23T17:46:55;1.87;;;1.60;;
64799;SDS011;51233;51.982;4.594;2023-04-23T17:49:58;4.25;;;1.60;;
64799;SDS011;51233;51.982;4.594;2023-04-23T17:52:58;1.40;;;1.15;;
64799;SDS011;51233;51.982;4.594;2023-04-23T17:55:59;2.03;;;1.60;;
64799;SDS011;51233;51.982;4.594;2023-04-23T17:59:04;2.20;;;1.58;;
64799;SDS011;51233;51.982;4.594;2023-04-23T18:02:05;4.90;;;3.63;;